sensor_id;sensor_type;location;lat;lon;timestamp;temperature;humidity
63317;DHT22;49822;41.468;13.560;2022-09-09T00:07:04;21.70;94.00
63317;DHT22;49822;41.468;13.560;2022-09-09T00:09:45;21.90;93.30
63317;DHT22;49822;41.468;13.560;2022-09-09T00:12:36;22.00;92.00
63317;DHT22;49822;41.468;13.560;2022-09-09T00:15:07;21.80;92.00
63317;DHT22;49822;41.468;13.560;2022-09-09T00:17:48;21.90;93.10
63317;DHT22;49822;41.468;13.560;2022-09-09T00:23:04;22.00;92.10
63317;DHT22;49822;41.468;13.560;2022-09-09T00:25:40;22.10;91.50
63317;DHT22;49822;41.468;13.560;2022-09-09T00:28:24;22.10;91.50
63317;DHT22;49822;41.468;13.560;2022-09-09T00:30:52;22.10;91.40
63317;DHT22;49822;41.468;13.560;2022-09-09T00:33:24;22.10;91.20
63317;DHT22;49822;41.468;13.560;2022-09-09T00:35:54;22.00;91.60
63317;DHT22;49822;41.468;13.560;2022-09-09T00:38:34;22.00;91.90
63317;DHT22;49822;41.468;13.560;2022-09-09T00:43:36;22.00;91.70
63317;DHT22;49822;41.468;13.560;2022-09-09T00:54:24;21.50;92.90
63317;DHT22;49822;41.468;13.560;2022-09-09T00:59:48;21.70;92.90
63317;DHT22;49822;41.468;13.560;2022-09-09T01:07:51;21.60;93.40
63317;DHT22;49822;41.468;13.560;2022-09-09T01:10:41;21.60;94.10
63317;DHT22;49822;41.468;13.560;2022-09-09T01:13:41;21.60;94.30
63317;DHT22;49822;41.468;13.560;2022-09-09T01:16:10;21.50;94.60
63317;DHT22;49822;41.468;13.560;2022-09-09T01:18:44;21.40;96.30
63317;DHT22;49822;41.468;13.560;2022-09-09T01:27:08;21.70;94.50
63317;DHT22;49822;41.468;13.560;2022-09-09T01:29:36;21.70;93.20
63317;DHT22;49822;41.468;13.560;2022-09-09T01:35:29;21.70;92.10
63317;DHT22;49822;41.468;13.560;2022-09-09T01:38:01;21.60;92.60
63317;DHT22;49822;41.468;13.560;2022-09-09T01:40:28;21.50;92.70
63317;DHT22;49822;41.468;13.560;2022-09-09T01:42:57;21.30;95.10
63317;DHT22;49822;41.468;13.560;2022-09-09T01:45:25;21.10;96.50
63317;DHT22;49822;41.468;13.560;2022-09-09T01:47:53;21.20;96.30
63317;DHT22;49822;41.468;13.560;2022-09-09T01:50:47;21.30;95.60
63317;DHT22;49822;41.468;13.560;2022-09-09T01:53:17;21.30;95.50
63317;DHT22;49822;41.468;13.560;2022-09-09T01:56:15;21.50;95.80
63317;DHT22;49822;41.468;13.560;2022-09-09T02:09:45;21.80;92.60
63317;DHT22;49822;41.468;13.560;2022-09-09T02:12:16;21.90;92.00
63317;DHT22;49822;41.468;13.560;2022-09-09T02:14:56;21.90;91.70
63317;DHT22;49822;41.468;13.560;2022-09-09T02:17:28;21.90;91.50
63317;DHT22;49822;41.468;13.560;2022-09-09T02:20:12;21.70;91.50
63317;DHT22;49822;41.468;13.560;2022-09-09T02:22:50;21.70;92.70
63317;DHT22;49822;41.468;13.560;2022-09-09T02:25:20;21.50;93.70
63317;DHT22;49822;41.468;13.560;2022-09-09T02:27:50;21.50;94.10
63317;DHT22;49822;41.468;13.560;2022-09-09T02:30:23;21.70;93.80
63317;DHT22;49822;41.468;13.560;2022-09-09T02:32:58;21.50;94.30
63317;DHT22;49822;41.468;13.560;2022-09-09T02:35:42;21.50;94.80
63317;DHT22;49822;41.468;13.560;2022-09-09T02:38:15;21.50;94.20
63317;DHT22;49822;41.468;13.560;2022-09-09T02:40:54;21.70;93.00
63317;DHT22;49822;41.468;13.560;2022-09-09T02:43:22;21.70;92.70
63317;DHT22;49822;41.468;13.560;2022-09-09T02:46:08;21.30;95.40
63317;DHT22;49822;41.468;13.560;2022-09-09T02:54:34;21.50;95.70
63317;DHT22;49822;41.468;13.560;2022-09-09T02:57:23;21.50;95.20
63317;DHT22;49822;41.468;13.560;2022-09-09T02:59:59;21.80;94.10
63317;DHT22;49822;41.468;13.560;2022-09-09T03:02:29;21.90;93.60
63317;DHT22;49822;41.468;13.560;2022-09-09T03:05:02;21.80;93.50
63317;DHT22;49822;41.468;13.560;2022-09-09T03:07:30;21.70;93.40
63317;DHT22;49822;41.468;13.560;2022-09-09T03:09:58;21.50;95.00
63317;DHT22;49822;41.468;13.560;2022-09-09T03:12:27;21.70;95.00
63317;DHT22;49822;41.468;13.560;2022-09-09T03:14:54;21.70;95.00
63317;DHT22;49822;41.468;13.560;2022-09-09T03:17:23;21.70;94.80
63317;DHT22;49822;41.468;13.560;2022-09-09T03:19:54;21.70;94.40
63317;DHT22;49822;41.468;13.560;2022-09-09T03:22:23;21.70;93.60
63317;DHT22;49822;41.468;13.560;2022-09-09T03:24:51;21.60;94.30
63317;DHT22;49822;41.468;13.560;2022-09-09T03:27:19;21.40;95.30
63317;DHT22;49822;41.468;13.560;2022-09-09T03:29:48;21.20;96.40
63317;DHT22;49822;41.468;13.560;2022-09-09T03:32:22;21.10;97.20
63317;DHT22;49822;41.468;13.560;2022-09-09T03:34:50;21.10;98.00
63317;DHT22;49822;41.468;13.560;2022-09-09T03:37:19;21.10;99.00
63317;DHT22;49822;41.468;13.560;2022-09-09T03:39:48;21.00;99.50
63317;DHT22;49822;41.468;13.560;2022-09-09T03:42:17;20.90;99.40
63317;DHT22;49822;41.468;13.560;2022-09-09T03:44:52;20.90;99.70
63317;DHT22;49822;41.468;13.560;2022-09-09T03:47:22;21.00;99.50
63317;DHT22;49822;41.468;13.560;2022-09-09T03:49:55;21.00;99.30
63317;DHT22;49822;41.468;13.560;2022-09-09T03:52:22;21.00;98.80
63317;DHT22;49822;41.468;13.560;2022-09-09T03:54:53;21.00;98.60
63317;DHT22;49822;41.468;13.560;2022-09-09T03:57:21;21.00;99.10
63317;DHT22;49822;41.468;13.560;2022-09-09T03:59:49;21.00;99.20
63317;DHT22;49822;41.468;13.560;2022-09-09T04:02:18;21.10;98.80
63317;DHT22;49822;41.468;13.560;2022-09-09T04:04:46;21.20;98.20
63317;DHT22;49822;41.468;13.560;2022-09-09T04:07:14;21.40;96.50
63317;DHT22;49822;41.468;13.560;2022-09-09T04:09:42;21.40;95.80
63317;DHT22;49822;41.468;13.560;2022-09-09T04:12:10;21.30;94.20
63317;DHT22;49822;41.468;13.560;2022-09-09T04:14:48;21.30;95.20
63317;DHT22;49822;41.468;13.560;2022-09-09T04:17:31;21.10;95.50
63317;DHT22;49822;41.468;13.560;2022-09-09T04:20:02;21.10;95.90
63317;DHT22;49822;41.468;13.560;2022-09-09T04:22:35;20.90;98.00
63317;DHT22;49822;41.468;13.560;2022-09-09T04:25:08;20.70;95.80
63317;DHT22;49822;41.468;13.560;2022-09-09T04:27:35;20.70;92.00
63317;DHT22;49822;41.468;13.560;2022-09-09T04:30:05;20.70;91.20
63317;DHT22;49822;41.468;13.560;2022-09-09T04:32:35;20.80;91.60
63317;DHT22;49822;41.468;13.560;2022-09-09T04:35:05;20.70;91.50
63317;DHT22;49822;41.468;13.560;2022-09-09T04:37:34;20.70;91.60
63317;DHT22;49822;41.468;13.560;2022-09-09T04:40:04;20.50;91.90
63317;DHT22;49822;41.468;13.560;2022-09-09T04:42:36;20.60;92.00
63317;DHT22;49822;41.468;13.560;2022-09-09T04:45:05;20.60;93.00
63317;DHT22;49822;41.468;13.560;2022-09-09T04:47:33;20.50;92.60
63317;DHT22;49822;41.468;13.560;2022-09-09T04:50:04;20.50;91.90
63317;DHT22;49822;41.468;13.560;2022-09-09T04:52:34;20.50;92.70
63317;DHT22;49822;41.468;13.560;2022-09-09T04:55:03;20.50;91.80
63317;DHT22;49822;41.468;13.560;2022-09-09T04:57:31;20.30;91.40
63317;DHT22;49822;41.468;13.560;2022-09-09T04:59:59;20.10;92.90
63317;DHT22;49822;41.468;13.560;2022-09-09T05:02:32;20.10;93.40
63317;DHT22;49822;41.468;13.560;2022-09-09T05:05:00;20.10;93.20
63317;DHT22;49822;41.468;13.560;2022-09-09T05:07:28;20.00;93.50
63317;DHT22;49822;41.468;13.560;2022-09-09T05:09:58;20.10;94.30
63317;DHT22;49822;41.468;13.560;2022-09-09T05:12:26;20.30;93.90
63317;DHT22;49822;41.468;13.560;2022-09-09T05:14:55;20.30;91.70
63317;DHT22;49822;41.468;13.560;2022-09-09T05:17:24;20.30;90.60
63317;DHT22;49822;41.468;13.560;2022-09-09T05:19:52;20.30;90.80
63317;DHT22;49822;41.468;13.560;2022-09-09T05:22:20;20.30;92.10
63317;DHT22;49822;41.468;13.560;2022-09-09T05:24:50;20.60;90.90
63317;DHT22;49822;41.468;13.560;2022-09-09T05:27:18;20.90;88.80
63317;DHT22;49822;41.468;13.560;2022-09-09T05:29:48;20.90;88.30
63317;DHT22;49822;41.468;13.560;2022-09-09T05:32:15;20.90;89.00
63317;DHT22;49822;41.468;13.560;2022-09-09T05:34:47;20.90;89.30
63317;DHT22;49822;41.468;13.560;2022-09-09T05:37:16;21.00;88.80
63317;DHT22;49822;41.468;13.560;2022-09-09T05:39:43;21.10;88.20
63317;DHT22;49822;41.468;13.560;2022-09-09T05:42:11;21.10;87.70
63317;DHT22;49822;41.468;13.560;2022-09-09T05:44:39;21.10;87.30
63317;DHT22;49822;41.468;13.560;2022-09-09T05:47:06;21.10;87.00
63317;DHT22;49822;41.468;13.560;2022-09-09T05:49:35;20.80;88.40
63317;DHT22;49822;41.468;13.560;2022-09-09T05:52:02;20.70;89.20
63317;DHT22;49822;41.468;13.560;2022-09-09T05:54:31;20.50;89.80
63317;DHT22;49822;41.468;13.560;2022-09-09T05:57:00;20.50;90.00
63317;DHT22;49822;41.468;13.560;2022-09-09T05:59:28;20.30;91.10
63317;DHT22;49822;41.468;13.560;2022-09-09T06:01:57;20.10;92.40
63317;DHT22;49822;41.468;13.560;2022-09-09T06:04:34;20.00;93.40
63317;DHT22;49822;41.468;13.560;2022-09-09T06:07:02;20.10;93.50
63317;DHT22;49822;41.468;13.560;2022-09-09T06:09:31;20.30;93.40
63317;DHT22;49822;41.468;13.560;2022-09-09T06:11:58;20.50;92.80
63317;DHT22;49822;41.468;13.560;2022-09-09T06:14:26;20.60;91.90
63317;DHT22;49822;41.468;13.560;2022-09-09T06:16:57;20.70;90.80
63317;DHT22;49822;41.468;13.560;2022-09-09T06:19:28;20.70;90.80
63317;DHT22;49822;41.468;13.560;2022-09-09T06:21:57;20.70;91.50
63317;DHT22;49822;41.468;13.560;2022-09-09T06:24:27;20.80;91.30
63317;DHT22;49822;41.468;13.560;2022-09-09T06:26:58;20.90;91.10
63317;DHT22;49822;41.468;13.560;2022-09-09T06:29:29;21.00;90.40
63317;DHT22;49822;41.468;13.560;2022-09-09T06:31:57;21.10;89.20
63317;DHT22;49822;41.468;13.560;2022-09-09T06:34:26;21.20;89.30
63317;DHT22;49822;41.468;13.560;2022-09-09T06:36:56;21.30;88.50
63317;DHT22;49822;41.468;13.560;2022-09-09T06:39:28;21.20;88.30
63317;DHT22;49822;41.468;13.560;2022-09-09T06:41:56;21.20;88.60
63317;DHT22;49822;41.468;13.560;2022-09-09T06:44:43;21.10;89.20
63317;DHT22;49822;41.468;13.560;2022-09-09T06:47:16;21.30;88.90
63317;DHT22;49822;41.468;13.560;2022-09-09T06:49:43;21.40;88.30
63317;DHT22;49822;41.468;13.560;2022-09-09T06:52:15;21.60;86.80
63317;DHT22;49822;41.468;13.560;2022-09-09T06:54:46;21.70;83.60
63317;DHT22;49822;41.468;13.560;2022-09-09T06:57:15;21.70;84.40
63317;DHT22;49822;41.468;13.560;2022-09-09T07:00:07;21.90;82.90
63317;DHT22;49822;41.468;13.560;2022-09-09T07:02:39;22.20;82.50
63317;DHT22;49822;41.468;13.560;2022-09-09T07:05:09;22.60;81.10
63317;DHT22;49822;41.468;13.560;2022-09-09T07:07:38;22.80;80.10
63317;DHT22;49822;41.468;13.560;2022-09-09T07:10:07;23.00;79.50
63317;DHT22;49822;41.468;13.560;2022-09-09T07:12:36;23.10;78.10
63317;DHT22;49822;41.468;13.560;2022-09-09T07:15:09;23.00;78.70
63317;DHT22;49822;41.468;13.560;2022-09-09T07:17:40;22.90;78.80
63317;DHT22;49822;41.468;13.560;2022-09-09T07:20:08;22.80;79.10
63317;DHT22;49822;41.468;13.560;2022-09-09T07:22:35;22.90;79.80
63317;DHT22;49822;41.468;13.560;2022-09-09T07:25:05;23.20;79.00
63317;DHT22;49822;41.468;13.560;2022-09-09T07:27:35;23.50;78.10
63317;DHT22;49822;41.468;13.560;2022-09-09T07:30:05;23.70;77.00
63317;DHT22;49822;41.468;13.560;2022-09-09T07:32:34;23.70;77.40
63317;DHT22;49822;41.468;13.560;2022-09-09T07:35:02;23.80;76.70
63317;DHT22;49822;41.468;13.560;2022-09-09T07:37:31;23.80;76.80
63317;DHT22;49822;41.468;13.560;2022-09-09T07:39:58;23.60;76.90
63317;DHT22;49822;41.468;13.560;2022-09-09T07:42:26;23.60;75.80
63317;DHT22;49822;41.468;13.560;2022-09-09T07:44:54;23.60;74.60
63317;DHT22;49822;41.468;13.560;2022-09-09T07:47:22;23.70;74.40
63317;DHT22;49822;41.468;13.560;2022-09-09T07:49:52;23.90;73.70
63317;DHT22;49822;41.468;13.560;2022-09-09T07:52:26;24.00;73.40
63317;DHT22;49822;41.468;13.560;2022-09-09T07:54:58;24.20;73.00
63317;DHT22;49822;41.468;13.560;2022-09-09T07:57:29;24.10;73.90
63317;DHT22;49822;41.468;13.560;2022-09-09T07:59:57;24.20;74.90
63317;DHT22;49822;41.468;13.560;2022-09-09T08:02:25;24.10;74.80
63317;DHT22;49822;41.468;13.560;2022-09-09T08:04:55;24.20;73.30
63317;DHT22;49822;41.468;13.560;2022-09-09T08:07:24;24.20;75.40
63317;DHT22;49822;41.468;13.560;2022-09-09T08:09:54;24.30;73.90
63317;DHT22;49822;41.468;13.560;2022-09-09T08:12:27;24.40;73.90
63317;DHT22;49822;41.468;13.560;2022-09-09T08:14:55;24.60;74.80
63317;DHT22;49822;41.468;13.560;2022-09-09T08:17:27;24.80;74.60
63317;DHT22;49822;41.468;13.560;2022-09-09T08:19:56;24.80;73.20
63317;DHT22;49822;41.468;13.560;2022-09-09T08:22:26;24.70;72.20
63317;DHT22;49822;41.468;13.560;2022-09-09T08:24:54;24.70;72.40
63317;DHT22;49822;41.468;13.560;2022-09-09T08:27:22;25.00;71.90
63317;DHT22;49822;41.468;13.560;2022-09-09T08:29:51;25.20;70.40
63317;DHT22;49822;41.468;13.560;2022-09-09T08:32:20;25.40;70.50
63317;DHT22;49822;41.468;13.560;2022-09-09T08:34:48;25.60;69.50
63317;DHT22;49822;41.468;13.560;2022-09-09T08:37:23;25.80;70.30
63317;DHT22;49822;41.468;13.560;2022-09-09T08:39:50;25.80;70.50
63317;DHT22;49822;41.468;13.560;2022-09-09T08:42:29;25.80;69.30
63317;DHT22;49822;41.468;13.560;2022-09-09T08:55:53;26.10;64.50
63317;DHT22;49822;41.468;13.560;2022-09-09T08:58:32;26.20;64.80
63317;DHT22;49822;41.468;13.560;2022-09-09T09:11:50;26.40;66.50
63317;DHT22;49822;41.468;13.560;2022-09-09T09:14:23;26.50;64.70
63317;DHT22;49822;41.468;13.560;2022-09-09T09:17:00;26.40;64.80
63317;DHT22;49822;41.468;13.560;2022-09-09T09:19:33;26.40;64.90
63317;DHT22;49822;41.468;13.560;2022-09-09T09:22:22;26.60;63.20
63317;DHT22;49822;41.468;13.560;2022-09-09T09:27:57;26.70;63.70
63317;DHT22;49822;41.468;13.560;2022-09-09T09:30:28;26.70;66.40
63317;DHT22;49822;41.468;13.560;2022-09-09T09:33:32;26.90;65.60
63317;DHT22;49822;41.468;13.560;2022-09-09T09:36:01;27.20;67.00
63317;DHT22;49822;41.468;13.560;2022-09-09T09:38:30;27.30;66.20
63317;DHT22;49822;41.468;13.560;2022-09-09T09:41:41;27.40;64.70
63317;DHT22;49822;41.468;13.560;2022-09-09T09:44:27;27.70;66.10
63317;DHT22;49822;41.468;13.560;2022-09-09T09:47:26;27.90;65.80
63317;DHT22;49822;41.468;13.560;2022-09-09T09:50:01;27.80;65.90
63317;DHT22;49822;41.468;13.560;2022-09-09T09:52:37;27.90;66.60
63317;DHT22;49822;41.468;13.560;2022-09-09T09:55:13;28.10;63.50
63317;DHT22;49822;41.468;13.560;2022-09-09T09:57:44;28.30;64.40
63317;DHT22;49822;41.468;13.560;2022-09-09T10:00:23;28.30;63.90
63317;DHT22;49822;41.468;13.560;2022-09-09T10:03:17;28.50;64.80
63317;DHT22;49822;41.468;13.560;2022-09-09T10:05:50;28.80;63.70
63317;DHT22;49822;41.468;13.560;2022-09-09T10:08:19;28.50;63.60
63317;DHT22;49822;41.468;13.560;2022-09-09T10:11:04;28.10;65.60
63317;DHT22;49822;41.468;13.560;2022-09-09T10:19:13;27.50;65.70
63317;DHT22;49822;41.468;13.560;2022-09-09T10:33:25;27.90;67.00
63317;DHT22;49822;41.468;13.560;2022-09-09T10:36:21;28.10;64.70
63317;DHT22;49822;41.468;13.560;2022-09-09T10:39:02;28.00;64.80
63317;DHT22;49822;41.468;13.560;2022-09-09T10:42:23;28.00;65.50
63317;DHT22;49822;41.468;13.560;2022-09-09T10:47:26;28.10;64.10
63317;DHT22;49822;41.468;13.560;2022-09-09T10:53:47;28.10;64.10
63317;DHT22;49822;41.468;13.560;2022-09-09T10:56:17;28.30;64.70
63317;DHT22;49822;41.468;13.560;2022-09-09T10:58:59;28.20;63.50
63317;DHT22;49822;41.468;13.560;2022-09-09T11:01:47;28.10;64.10
63317;DHT22;49822;41.468;13.560;2022-09-09T11:04:24;28.30;63.20
63317;DHT22;49822;41.468;13.560;2022-09-09T11:06:55;28.10;65.60
63317;DHT22;49822;41.468;13.560;2022-09-09T11:09:28;27.80;65.40
63317;DHT22;49822;41.468;13.560;2022-09-09T11:12:00;27.50;65.60
63317;DHT22;49822;41.468;13.560;2022-09-09T11:14:47;27.40;66.20
63317;DHT22;49822;41.468;13.560;2022-09-09T11:17:20;27.20;67.80
63317;DHT22;49822;41.468;13.560;2022-09-09T11:19:48;27.50;65.90
63317;DHT22;49822;41.468;13.560;2022-09-09T11:22:36;27.60;67.40
63317;DHT22;49822;41.468;13.560;2022-09-09T11:25:56;28.00;64.80
63317;DHT22;49822;41.468;13.560;2022-09-09T11:31:33;28.30;63.60
63317;DHT22;49822;41.468;13.560;2022-09-09T11:37:02;28.30;64.90
63317;DHT22;49822;41.468;13.560;2022-09-09T11:42:18;28.20;60.80
63317;DHT22;49822;41.468;13.560;2022-09-09T11:44:46;28.10;60.70
63317;DHT22;49822;41.468;13.560;2022-09-09T11:47:32;28.30;61.90
63317;DHT22;49822;41.468;13.560;2022-09-09T11:52:47;28.60;61.10
63317;DHT22;49822;41.468;13.560;2022-09-09T11:55:28;28.30;58.80
63317;DHT22;49822;41.468;13.560;2022-09-09T12:00:41;28.30;61.00
63317;DHT22;49822;41.468;13.560;2022-09-09T12:03:48;28.10;60.80
63317;DHT22;49822;41.468;13.560;2022-09-09T12:06:30;28.30;58.70
63317;DHT22;49822;41.468;13.560;2022-09-09T12:14:58;28.20;59.30
63317;DHT22;49822;41.468;13.560;2022-09-09T12:17:31;27.80;64.40
63317;DHT22;49822;41.468;13.560;2022-09-09T12:20:16;27.50;61.60
63317;DHT22;49822;41.468;13.560;2022-09-09T12:36:44;27.80;61.70
63317;DHT22;49822;41.468;13.560;2022-09-09T12:39:30;28.00;61.20
63317;DHT22;49822;41.468;13.560;2022-09-09T12:42:00;28.10;60.50
63317;DHT22;49822;41.468;13.560;2022-09-09T12:44:28;28.00;61.10
63317;DHT22;49822;41.468;13.560;2022-09-09T12:47:01;27.90;61.90
63317;DHT22;49822;41.468;13.560;2022-09-09T12:49:35;28.00;62.20
63317;DHT22;49822;41.468;13.560;2022-09-09T12:52:31;28.00;62.30
63317;DHT22;49822;41.468;13.560;2022-09-09T12:55:02;27.90;62.10
63317;DHT22;49822;41.468;13.560;2022-09-09T12:57:38;27.70;63.20
63317;DHT22;49822;41.468;13.560;2022-09-09T13:00:23;27.50;64.70
63317;DHT22;49822;41.468;13.560;2022-09-09T13:02:56;27.40;64.60
63317;DHT22;49822;41.468;13.560;2022-09-09T13:05:26;27.50;63.20
63317;DHT22;49822;41.468;13.560;2022-09-09T13:08:08;27.80;62.30
63317;DHT22;49822;41.468;13.560;2022-09-09T13:11:00;27.50;64.30
63317;DHT22;49822;41.468;13.560;2022-09-09T13:13:35;27.50;64.70
63317;DHT22;49822;41.468;13.560;2022-09-09T13:16:05;27.60;62.00
63317;DHT22;49822;41.468;13.560;2022-09-09T13:18:37;27.50;62.50
63317;DHT22;49822;41.468;13.560;2022-09-09T13:21:06;27.50;61.70
63317;DHT22;49822;41.468;13.560;2022-09-09T13:23:36;27.50;62.60
63317;DHT22;49822;41.468;13.560;2022-09-09T13:26:22;27.40;61.90
63317;DHT22;49822;41.468;13.560;2022-09-09T13:28:51;27.50;62.40
63317;DHT22;49822;41.468;13.560;2022-09-09T13:31:22;27.40;61.60
63317;DHT22;49822;41.468;13.560;2022-09-09T13:33:50;27.30;62.10
63317;DHT22;49822;41.468;13.560;2022-09-09T13:36:27;27.30;61.30
63317;DHT22;49822;41.468;13.560;2022-09-09T13:38:57;27.50;61.80
63317;DHT22;49822;41.468;13.560;2022-09-09T13:41:35;27.40;60.70
63317;DHT22;49822;41.468;13.560;2022-09-09T13:44:03;27.40;61.80
63317;DHT22;49822;41.468;13.560;2022-09-09T13:46:38;27.30;62.30
63317;DHT22;49822;41.468;13.560;2022-09-09T13:51:46;27.20;65.10
63317;DHT22;49822;41.468;13.560;2022-09-09T13:54:15;27.10;63.90
63317;DHT22;49822;41.468;13.560;2022-09-09T13:56:44;26.90;64.40
63317;DHT22;49822;41.468;13.560;2022-09-09T13:59:19;27.00;65.10
63317;DHT22;49822;41.468;13.560;2022-09-09T14:02:08;26.90;63.20
63317;DHT22;49822;41.468;13.560;2022-09-09T14:04:35;27.00;63.10
63317;DHT22;49822;41.468;13.560;2022-09-09T14:07:03;27.00;63.00
63317;DHT22;49822;41.468;13.560;2022-09-09T14:09:30;26.90;62.90
63317;DHT22;49822;41.468;13.560;2022-09-09T14:11:58;27.00;62.00
63317;DHT22;49822;41.468;13.560;2022-09-09T14:14:25;26.90;62.00
63317;DHT22;49822;41.468;13.560;2022-09-09T14:16:53;27.00;61.80
63317;DHT22;49822;41.468;13.560;2022-09-09T14:19:21;27.00;61.20
63317;DHT22;49822;41.468;13.560;2022-09-09T14:22:00;26.90;61.20
63317;DHT22;49822;41.468;13.560;2022-09-09T14:24:28;26.90;61.10
63317;DHT22;49822;41.468;13.560;2022-09-09T14:26:56;26.90;60.50
63317;DHT22;49822;41.468;13.560;2022-09-09T14:29:23;26.90;62.10
63317;DHT22;49822;41.468;13.560;2022-09-09T14:31:52;26.90;60.80
63317;DHT22;49822;41.468;13.560;2022-09-09T14:34:38;26.70;61.30
63317;DHT22;49822;41.468;13.560;2022-09-09T14:37:06;26.70;61.90
63317;DHT22;49822;41.468;13.560;2022-09-09T14:39:33;26.80;61.60
63317;DHT22;49822;41.468;13.560;2022-09-09T14:42:00;26.90;61.80
63317;DHT22;49822;41.468;13.560;2022-09-09T14:44:30;26.90;60.30
63317;DHT22;49822;41.468;13.560;2022-09-09T14:46:57;26.80;59.90
63317;DHT22;49822;41.468;13.560;2022-09-09T14:49:25;26.80;60.30
63317;DHT22;49822;41.468;13.560;2022-09-09T14:52:11;26.80;60.50
63317;DHT22;49822;41.468;13.560;2022-09-09T14:54:38;26.70;60.50
63317;DHT22;49822;41.468;13.560;2022-09-09T14:57:06;26.70;61.30
63317;DHT22;49822;41.468;13.560;2022-09-09T14:59:33;26.60;60.30
63317;DHT22;49822;41.468;13.560;2022-09-09T15:02:01;26.50;61.20
63317;DHT22;49822;41.468;13.560;2022-09-09T15:04:32;26.50;59.60
63317;DHT22;49822;41.468;13.560;2022-09-09T15:06:59;26.50;59.30
63317;DHT22;49822;41.468;13.560;2022-09-09T15:09:26;26.40;59.40
63317;DHT22;49822;41.468;13.560;2022-09-09T15:11:54;26.40;60.30
63317;DHT22;49822;41.468;13.560;2022-09-09T15:14:21;26.30;60.70
63317;DHT22;49822;41.468;13.560;2022-09-09T15:16:52;26.40;60.90
63317;DHT22;49822;41.468;13.560;2022-09-09T15:19:19;26.40;60.70
63317;DHT22;49822;41.468;13.560;2022-09-09T15:21:46;26.40;60.90
63317;DHT22;49822;41.468;13.560;2022-09-09T15:24:14;26.40;60.80
63317;DHT22;49822;41.468;13.560;2022-09-09T15:26:43;26.30;61.20
63317;DHT22;49822;41.468;13.560;2022-09-09T15:29:12;26.40;61.50
63317;DHT22;49822;41.468;13.560;2022-09-09T15:31:40;26.40;61.20
63317;DHT22;49822;41.468;13.560;2022-09-09T15:34:07;26.50;61.60
63317;DHT22;49822;41.468;13.560;2022-09-09T15:36:40;26.60;62.50
63317;DHT22;49822;41.468;13.560;2022-09-09T15:39:10;26.60;63.10
63317;DHT22;49822;41.468;13.560;2022-09-09T15:41:44;26.60;62.40
63317;DHT22;49822;41.468;13.560;2022-09-09T15:44:11;26.40;62.80
63317;DHT22;49822;41.468;13.560;2022-09-09T15:46:44;26.50;64.00
63317;DHT22;49822;41.468;13.560;2022-09-09T15:49:17;26.40;63.50
63317;DHT22;49822;41.468;13.560;2022-09-09T15:52:03;26.50;65.10
63317;DHT22;49822;41.468;13.560;2022-09-09T15:54:33;26.50;64.50
63317;DHT22;49822;41.468;13.560;2022-09-09T15:57:03;26.40;64.70
63317;DHT22;49822;41.468;13.560;2022-09-09T15:59:32;26.00;65.70
63317;DHT22;49822;41.468;13.560;2022-09-09T16:02:01;26.00;65.30
63317;DHT22;49822;41.468;13.560;2022-09-09T16:04:29;26.00;65.90
63317;DHT22;49822;41.468;13.560;2022-09-09T16:06:59;26.00;66.00
63317;DHT22;49822;41.468;13.560;2022-09-09T16:09:27;26.10;64.70
63317;DHT22;49822;41.468;13.560;2022-09-09T16:12:03;26.40;64.80
63317;DHT22;49822;41.468;13.560;2022-09-09T16:14:34;26.40;65.10
63317;DHT22;49822;41.468;13.560;2022-09-09T16:17:05;26.40;65.00
63317;DHT22;49822;41.468;13.560;2022-09-09T16:19:33;26.50;64.60
63317;DHT22;49822;41.468;13.560;2022-09-09T16:22:01;26.70;64.20
63317;DHT22;49822;41.468;13.560;2022-09-09T16:24:30;26.70;64.10
63317;DHT22;49822;41.468;13.560;2022-09-09T16:26:57;26.70;63.90
63317;DHT22;49822;41.468;13.560;2022-09-09T16:29:25;26.40;65.10
63317;DHT22;49822;41.468;13.560;2022-09-09T16:31:55;26.00;65.70
63317;DHT22;49822;41.468;13.560;2022-09-09T16:34:28;25.70;67.20
63317;DHT22;49822;41.468;13.560;2022-09-09T16:36:56;25.60;67.90
63317;DHT22;49822;41.468;13.560;2022-09-09T16:39:23;25.50;68.00
63317;DHT22;49822;41.468;13.560;2022-09-09T16:41:51;25.40;68.30
63317;DHT22;49822;41.468;13.560;2022-09-09T16:44:19;25.40;68.70
63317;DHT22;49822;41.468;13.560;2022-09-09T16:46:48;25.30;68.80
63317;DHT22;49822;41.468;13.560;2022-09-09T16:49:26;25.30;69.50
63317;DHT22;49822;41.468;13.560;2022-09-09T16:51:57;25.10;70.30
63317;DHT22;49822;41.468;13.560;2022-09-09T16:54:25;25.00;71.10
63317;DHT22;49822;41.468;13.560;2022-09-09T16:56:54;25.00;71.90
63317;DHT22;49822;41.468;13.560;2022-09-09T16:59:22;25.00;71.90
63317;DHT22;49822;41.468;13.560;2022-09-09T17:01:51;25.00;72.20
63317;DHT22;49822;41.468;13.560;2022-09-09T17:04:22;25.00;73.00
63317;DHT22;49822;41.468;13.560;2022-09-09T17:06:52;24.90;73.20
63317;DHT22;49822;41.468;13.560;2022-09-09T17:09:21;24.90;73.00
63317;DHT22;49822;41.468;13.560;2022-09-09T17:11:50;25.00;73.20
63317;DHT22;49822;41.468;13.560;2022-09-09T17:14:20;25.00;72.70
63317;DHT22;49822;41.468;13.560;2022-09-09T17:16:49;25.00;72.50
63317;DHT22;49822;41.468;13.560;2022-09-09T17:19:17;25.00;72.40
63317;DHT22;49822;41.468;13.560;2022-09-09T17:21:45;25.00;72.60
63317;DHT22;49822;41.468;13.560;2022-09-09T17:24:34;25.00;72.90
63317;DHT22;49822;41.468;13.560;2022-09-09T17:27:02;25.00;72.90
63317;DHT22;49822;41.468;13.560;2022-09-09T17:29:30;25.00;72.20
63317;DHT22;49822;41.468;13.560;2022-09-09T17:31:57;25.00;72.60
63317;DHT22;49822;41.468;13.560;2022-09-09T17:34:25;25.00;72.30
63317;DHT22;49822;41.468;13.560;2022-09-09T17:36:52;25.10;71.00
63317;DHT22;49822;41.468;13.560;2022-09-09T17:39:20;25.10;71.60
63317;DHT22;49822;41.468;13.560;2022-09-09T17:41:48;25.00;71.20
63317;DHT22;49822;41.468;13.560;2022-09-09T17:44:16;25.10;70.50
63317;DHT22;49822;41.468;13.560;2022-09-09T17:46:43;25.00;70.70
63317;DHT22;49822;41.468;13.560;2022-09-09T17:49:14;25.00;70.60
63317;DHT22;49822;41.468;13.560;2022-09-09T17:51:43;25.00;68.60
63317;DHT22;49822;41.468;13.560;2022-09-09T17:54:14;25.00;68.40
63317;DHT22;49822;41.468;13.560;2022-09-09T17:56:43;25.00;67.40
63317;DHT22;49822;41.468;13.560;2022-09-09T17:59:12;25.00;66.10
63317;DHT22;49822;41.468;13.560;2022-09-09T18:01:42;25.10;65.30
63317;DHT22;49822;41.468;13.560;2022-09-09T18:04:15;25.20;64.70
63317;DHT22;49822;41.468;13.560;2022-09-09T18:06:45;25.20;64.60